sensor_id;sensor_type;location;lat;lon;timestamp;P1;durP1;ratioP1;P2;durP2;ratioP2
21339;SDS011;10828;47.064;15.422;2023-07-13T06:18:15;5.63;;;1.50;;
21339;SDS011;10828;47.064;15.422;2023-07-13T06:20:43;4.63;;;1.63;;
21339;SDS011;10828;47.064;15.422;2023-07-13T06:23:17;6.33;;;1.50;;
21339;SDS011;10828;47.064;15.422;2023-07-13T06:36:30;2.63;;;1.00;;
21339;SDS011;10828;47.064;15.422;2023-07-13T06:44:55;2.80;;;1.20;;
21339;SDS011;10828;47.064;15.422;2023-07-13T06:48:03;3.40;;;1.23;;
21339;SDS011;10828;47.064;15.422;2023-07-13T06:51:02;3.70;;;1.10;;
21339;SDS011;10828;47.064;15.422;2023-07-13T06:53:43;5.27;;;1.27;;
21339;SDS011;10828;47.064;15.422;2023-07-13T06:56:35;2.97;;;1.10;;
21339;SDS011;10828;47.064;15.422;2023-07-13T07:00:03;9.13;;;1.53;;
21339;SDS011;10828;47.064;15.422;2023-07-13T07:02:39;3.77;;;1.33;;
21339;SDS011;10828;47.064;15.422;2023-07-13T07:05:05;3.37;;;1.20;;
21339;SDS011;10828;47.064;15.422;2023-07-13T07:07:31;3.90;;;1.03;;
21339;SDS011;10828;47.064;15.422;2023-07-13T07:09:57;4.40;;;1.30;;
21339;SDS011;10828;47.064;15.422;2023-07-13T07:12:39;3.87;;;1.30;;
21339;SDS011;10828;47.064;15.422;2023-07-13T07:15:33;2.20;;;1.10;;
21339;SDS011;10828;47.064;15.422;2023-07-13T07:18:06;8.37;;;1.20;;
21339;SDS011;10828;47.064;15.422;2023-07-13T07:20:34;2.80;;;1.10;;
21339;SDS011;10828;47.064;15.422;2023-07-13T07:23:00;2.53;;;1.10;;
21339;SDS011;10828;47.064;15.422;2023-07-13T07:25:26;1.60;;;0.80;;
21339;SDS011;10828;47.064;15.422;2023-07-13T07:27:52;1.93;;;0.90;;
21339;SDS011;10828;47.064;15.422;2023-07-13T07:30:17;6.43;;;1.40;;
21339;SDS011;10828;47.064;15.422;2023-07-13T07:32:43;4.63;;;1.10;;
21339;SDS011;10828;47.064;15.422;2023-07-13T07:35:08;2.27;;;1.00;;
21339;SDS011;10828;47.064;15.422;2023-07-13T07:37:34;3.57;;;1.10;;
21339;SDS011;10828;47.064;15.422;2023-07-13T07:40:00;8.10;;;1.50;;
21339;SDS011;10828;47.064;15.422;2023-07-13T07:42:25;4.17;;;0.90;;
21339;SDS011;10828;47.064;15.422;2023-07-13T07:44:51;5.80;;;1.10;;
21339;SDS011;10828;47.064;15.422;2023-07-13T07:47:17;3.20;;;0.90;;
21339;SDS011;10828;47.064;15.422;2023-07-13T07:49:42;3.67;;;1.13;;
21339;SDS011;10828;47.064;15.422;2023-07-13T07:52:08;4.27;;;1.00;;
21339;SDS011;10828;47.064;15.422;2023-07-13T07:54:35;3.67;;;1.17;;
21339;SDS011;10828;47.064;15.422;2023-07-13T07:57:06;1.93;;;0.90;;
21339;SDS011;10828;47.064;15.422;2023-07-13T07:59:33;2.77;;;1.20;;
21339;SDS011;10828;47.064;15.422;2023-07-13T08:02:03;3.43;;;1.23;;
21339;SDS011;10828;47.064;15.422;2023-07-13T08:04:32;3.83;;;1.40;;
21339;SDS011;10828;47.064;15.422;2023-07-13T08:06:58;5.07;;;1.00;;
21339;SDS011;10828;47.064;15.422;2023-07-13T08:09:23;3.07;;;1.13;;
21339;SDS011;10828;47.064;15.422;2023-07-13T08:11:49;3.17;;;1.10;;
21339;SDS011;10828;47.064;15.422;2023-07-13T08:14:17;1.77;;;0.80;;
21339;SDS011;10828;47.064;15.422;2023-07-13T08:16:45;2.73;;;0.97;;
21339;SDS011;10828;47.064;15.422;2023-07-13T08:19:11;3.17;;;0.80;;
21339;SDS011;10828;47.064;15.422;2023-07-13T08:21:39;3.90;;;1.00;;
21339;SDS011;10828;47.064;15.422;2023-07-13T08:24:07;1.50;;;0.80;;
21339;SDS011;10828;47.064;15.422;2023-07-13T08:26:34;1.80;;;0.70;;
21339;SDS011;10828;47.064;15.422;2023-07-13T08:29:00;2.17;;;0.90;;
21339;SDS011;10828;47.064;15.422;2023-07-13T08:31:25;3.17;;;0.85;;
21339;SDS011;10828;47.064;15.422;2023-07-13T08:33:51;1.70;;;0.90;;
21339;SDS011;10828;47.064;15.422;2023-07-13T08:36:17;2.67;;;1.25;;
21339;SDS011;10828;47.064;15.422;2023-07-13T08:38:44;2.63;;;0.98;;
21339;SDS011;10828;47.064;15.422;2023-07-13T08:41:13;2.67;;;0.80;;
21339;SDS011;10828;47.064;15.422;2023-07-13T08:43:41;1.47;;;0.80;;
21339;SDS011;10828;47.064;15.422;2023-07-13T08:51:54;3.00;;;0.98;;
21339;SDS011;10828;47.064;15.422;2023-07-13T08:54:36;2.58;;;1.00;;
21339;SDS011;10828;47.064;15.422;2023-07-13T08:57:15;3.55;;;0.90;;
21339;SDS011;10828;47.064;15.422;2023-07-13T08:59:50;1.92;;;0.80;;
21339;SDS011;10828;47.064;15.422;2023-07-13T09:02:32;3.17;;;0.73;;
21339;SDS011;10828;47.064;15.422;2023-07-13T09:05:13;2.95;;;0.93;;
21339;SDS011;10828;47.064;15.422;2023-07-13T09:10:44;3.70;;;0.90;;
21339;SDS011;10828;47.064;15.422;2023-07-13T09:13:16;2.60;;;1.10;;
21339;SDS011;10828;47.064;15.422;2023-07-13T09:15:57;6.10;;;1.27;;
21339;SDS011;10828;47.064;15.422;2023-07-13T09:21:22;3.80;;;1.25;;
21339;SDS011;10828;47.064;15.422;2023-07-13T09:23:54;2.13;;;1.00;;
21339;SDS011;10828;47.064;15.422;2023-07-13T09:26:42;6.60;;;1.15;;
21339;SDS011;10828;47.064;15.422;2023-07-13T09:29:13;4.60;;;1.02;;
21339;SDS011;10828;47.064;15.422;2023-07-13T09:31:49;4.10;;;1.20;;
21339;SDS011;10828;47.064;15.422;2023-07-13T09:34:18;2.10;;;0.88;;
21339;SDS011;10828;47.064;15.422;2023-07-13T09:36:43;0.93;;;0.63;;
21339;SDS011;10828;47.064;15.422;2023-07-13T09:39:13;3.25;;;1.00;;
21339;SDS011;10828;47.064;15.422;2023-07-13T09:44:14;4.82;;;1.10;;
21339;SDS011;10828;47.064;15.422;2023-07-13T09:46:46;1.65;;;0.80;;
21339;SDS011;10828;47.064;15.422;2023-07-13T09:49:17;5.65;;;1.10;;
21339;SDS011;10828;47.064;15.422;2023-07-13T09:51:43;4.93;;;0.95;;
21339;SDS011;10828;47.064;15.422;2023-07-13T09:54:17;2.25;;;0.85;;
21339;SDS011;10828;47.064;15.422;2023-07-13T09:56:45;3.17;;;1.02;;
21339;SDS011;10828;47.064;15.422;2023-07-13T09:59:20;2.15;;;1.00;;
21339;SDS011;10828;47.064;15.422;2023-07-13T10:01:49;1.77;;;0.95;;
21339;SDS011;10828;47.064;15.422;2023-07-13T10:04:17;6.50;;;1.27;;
21339;SDS011;10828;47.064;15.422;2023-07-13T10:06:44;4.50;;;1.08;;
21339;SDS011;10828;47.064;15.422;2023-07-13T10:09:13;3.00;;;1.20;;
21339;SDS011;10828;47.064;15.422;2023-07-13T10:11:44;3.33;;;1.10;;
21339;SDS011;10828;47.064;15.422;2023-07-13T10:14:12;2.40;;;0.80;;
21339;SDS011;10828;47.064;15.422;2023-07-13T10:16:41;2.35;;;0.95;;
21339;SDS011;10828;47.064;15.422;2023-07-13T10:19:15;5.70;;;1.17;;
21339;SDS011;10828;47.064;15.422;2023-07-13T10:24:21;1.75;;;0.90;;
21339;SDS011;10828;47.064;15.422;2023-07-13T10:29:29;2.88;;;1.65;;
21339;SDS011;10828;47.064;15.422;2023-07-13T10:32:00;2.78;;;1.70;;
21339;SDS011;10828;47.064;15.422;2023-07-13T10:34:25;2.80;;;0.90;;
21339;SDS011;10828;47.064;15.422;2023-07-13T10:36:51;6.47;;;1.25;;
21339;SDS011;10828;47.064;15.422;2023-07-13T10:39:19;2.78;;;1.20;;
21339;SDS011;10828;47.064;15.422;2023-07-13T10:41:52;3.38;;;1.20;;
21339;SDS011;10828;47.064;15.422;2023-07-13T10:44:39;1.75;;;1.05;;
21339;SDS011;10828;47.064;15.422;2023-07-13T10:47:06;6.68;;;1.15;;
21339;SDS011;10828;47.064;15.422;2023-07-13T10:49:38;3.22;;;0.98;;
21339;SDS011;10828;47.064;15.422;2023-07-13T10:52:06;2.53;;;1.05;;
21339;SDS011;10828;47.064;15.422;2023-07-13T10:54:51;3.97;;;1.45;;
21339;SDS011;10828;47.064;15.422;2023-07-13T10:59:49;2.00;;;1.05;;
21339;SDS011;10828;47.064;15.422;2023-07-13T11:02:43;2.92;;;1.10;;
21339;SDS011;10828;47.064;15.422;2023-07-13T11:05:29;2.53;;;1.15;;
21339;SDS011;10828;47.064;15.422;2023-07-13T11:10:58;4.38;;;1.48;;
21339;SDS011;10828;47.064;15.422;2023-07-13T11:18:52;3.92;;;1.00;;
21339;SDS011;10828;47.064;15.422;2023-07-13T11:22:01;3.72;;;1.00;;
21339;SDS011;10828;47.064;15.422;2023-07-13T11:27:35;1.60;;;0.98;;
21339;SDS011;10828;47.064;15.422;2023-07-13T11:30:17;2.63;;;1.00;;
21339;SDS011;10828;47.064;15.422;2023-07-13T11:32:45;5.80;;;1.20;;
21339;SDS011;10828;47.064;15.422;2023-07-13T11:35:19;2.35;;;1.17;;
21339;SDS011;10828;47.064;15.422;2023-07-13T11:37:49;2.20;;;1.20;;
21339;SDS011;10828;47.064;15.422;2023-07-13T11:40:17;3.53;;;1.40;;
21339;SDS011;10828;47.064;15.422;2023-07-13T11:42:44;2.15;;;1.10;;
21339;SDS011;10828;47.064;15.422;2023-07-13T11:45:22;2.30;;;1.00;;
21339;SDS011;10828;47.064;15.422;2023-07-13T11:47:48;3.53;;;1.27;;
21339;SDS011;10828;47.064;15.422;2023-07-13T11:50:19;2.50;;;1.30;;
21339;SDS011;10828;47.064;15.422;2023-07-13T11:53:05;3.38;;;1.15;;
21339;SDS011;10828;47.064;15.422;2023-07-13T11:55:37;4.95;;;1.35;;
21339;SDS011;10828;47.064;15.422;2023-07-13T11:58:04;3.13;;;0.95;;
21339;SDS011;10828;47.064;15.422;2023-07-13T12:00:31;3.10;;;1.00;;
21339;SDS011;10828;47.064;15.422;2023-07-13T12:02:59;3.33;;;1.35;;
21339;SDS011;10828;47.064;15.422;2023-07-13T12:05:27;2.55;;;1.10;;
21339;SDS011;10828;47.064;15.422;2023-07-13T12:07:54;2.47;;;1.27;;
21339;SDS011;10828;47.064;15.422;2023-07-13T12:10:29;2.15;;;1.00;;
21339;SDS011;10828;47.064;15.422;2023-07-13T12:13:00;2.38;;;1.05;;
21339;SDS011;10828;47.064;15.422;2023-07-13T12:18:21;2.28;;;0.90;;
21339;SDS011;10828;47.064;15.422;2023-07-13T12:20:51;2.05;;;1.08;;
21339;SDS011;10828;47.064;15.422;2023-07-13T12:23:24;5.63;;;1.30;;
21339;SDS011;10828;47.064;15.422;2023-07-13T12:25:53;4.15;;;1.55;;
21339;SDS011;10828;47.064;15.422;2023-07-13T12:28:20;3.10;;;1.30;;
21339;SDS011;10828;47.064;15.422;2023-07-13T12:30:48;3.05;;;1.05;;
21339;SDS011;10828;47.064;15.422;2023-07-13T12:33:16;3.03;;;1.00;;
21339;SDS011;10828;47.064;15.422;2023-07-13T12:35:46;3.30;;;0.98;;
21339;SDS011;10828;47.064;15.422;2023-07-13T12:38:13;4.07;;;1.40;;
21339;SDS011;10828;47.064;15.422;2023-07-13T12:40:42;2.42;;;1.17;;
21339;SDS011;10828;47.064;15.422;2023-07-13T12:43:11;4.43;;;1.20;;
21339;SDS011;10828;47.064;15.422;2023-07-13T12:48:44;3.33;;;1.30;;
21339;SDS011;10828;47.064;15.422;2023-07-13T12:51:14;4.70;;;1.90;;
21339;SDS011;10828;47.064;15.422;2023-07-13T12:53:41;4.60;;;1.40;;
21339;SDS011;10828;47.064;15.422;2023-07-13T12:56:19;3.83;;;1.23;;
21339;SDS011;10828;47.064;15.422;2023-07-13T12:58:48;5.47;;;1.10;;
21339;SDS011;10828;47.064;15.422;2023-07-13T13:01:21;4.73;;;1.60;;
21339;SDS011;10828;47.064;15.422;2023-07-13T13:03:52;6.07;;;1.70;;
21339;SDS011;10828;47.064;15.422;2023-07-13T13:08:54;2.73;;;1.33;;
21339;SDS011;10828;47.064;15.422;2023-07-13T13:11:23;5.43;;;1.60;;
21339;SDS011;10828;47.064;15.422;2023-07-13T13:13:51;4.23;;;1.20;;
21339;SDS011;10828;47.064;15.422;2023-07-13T13:16:23;2.87;;;1.50;;
21339;SDS011;10828;47.064;15.422;2023-07-13T13:18:59;3.83;;;1.57;;
21339;SDS011;10828;47.064;15.422;2023-07-13T13:21:38;6.90;;;1.53;;
21339;SDS011;10828;47.064;15.422;2023-07-13T13:24:12;1.93;;;0.93;;
21339;SDS011;10828;47.064;15.422;2023-07-13T13:26:41;4.10;;;1.63;;
21339;SDS011;10828;47.064;15.422;2023-07-13T13:29:14;2.60;;;1.30;;
21339;SDS011;10828;47.064;15.422;2023-07-13T13:31:40;3.13;;;1.50;;
21339;SDS011;10828;47.064;15.422;2023-07-13T13:34:17;4.23;;;1.33;;
21339;SDS011;10828;47.064;15.422;2023-07-13T17:23:24;7.07;;;2.83;;
21339;SDS011;10828;47.064;15.422;2023-07-13T21:09:43;3.93;;;1.60;;
21339;SDS011;10828;47.064;15.422;2023-07-13T21:12:12;7.20;;;1.80;;
21339;SDS011;10828;47.064;15.422;2023-07-13T21:14:38;5.43;;;2.13;;
21339;SDS011;10828;47.064;15.422;2023-07-13T21:17:04;4.43;;;2.00;;
21339;SDS011;10828;47.064;15.422;2023-07-13T21:22:49;5.07;;;2.20;;
21339;SDS011;10828;47.064;15.422;2023-07-13T21:26:01;4.43;;;2.00;;
21339;SDS011;10828;47.064;15.422;2023-07-13T21:28:29;4.60;;;2.30;;
21339;SDS011;10828;47.064;15.422;2023-07-13T21:31:03;4.83;;;2.47;;
21339;SDS011;10828;47.064;15.422;2023-07-13T21:33:35;5.60;;;2.30;;
21339;SDS011;10828;47.064;15.422;2023-07-13T21:36:03;5.60;;;2.40;;
21339;SDS011;10828;47.064;15.422;2023-07-13T21:38:35;5.07;;;2.00;;
21339;SDS011;10828;47.064;15.422;2023-07-13T21:41:06;4.83;;;2.07;;
21339;SDS011;10828;47.064;15.422;2023-07-13T21:43:47;5.40;;;2.50;;
21339;SDS011;10828;47.064;15.422;2023-07-13T21:46:13;5.63;;;2.30;;
21339;SDS011;10828;47.064;15.422;2023-07-13T21:48:39;4.10;;;2.10;;
21339;SDS011;10828;47.064;15.422;2023-07-13T21:51:14;4.87;;;2.23;;
21339;SDS011;10828;47.064;15.422;2023-07-13T21:53:46;5.20;;;2.57;;
21339;SDS011;10828;47.064;15.422;2023-07-13T21:56:28;4.53;;;2.47;;
21339;SDS011;10828;47.064;15.422;2023-07-13T21:58:57;6.20;;;2.47;;
21339;SDS011;10828;47.064;15.422;2023-07-13T22:01:35;5.40;;;2.47;;
21339;SDS011;10828;47.064;15.422;2023-07-13T22:04:01;4.60;;;2.57;;
21339;SDS011;10828;47.064;15.422;2023-07-13T22:06:29;6.57;;;2.60;;
21339;SDS011;10828;47.064;15.422;2023-07-13T22:08:55;4.50;;;2.00;;
21339;SDS011;10828;47.064;15.422;2023-07-13T22:11:24;11.10;;;4.53;;
21339;SDS011;10828;47.064;15.422;2023-07-13T22:13:51;17.47;;;6.97;;
21339;SDS011;10828;47.064;15.422;2023-07-13T22:16:19;17.53;;;6.33;;
21339;SDS011;10828;47.064;15.422;2023-07-13T22:18:48;12.23;;;5.03;;
21339;SDS011;10828;47.064;15.422;2023-07-13T22:21:21;12.03;;;3.93;;
21339;SDS011;10828;47.064;15.422;2023-07-13T22:23:49;5.80;;;3.07;;
21339;SDS011;10828;47.064;15.422;2023-07-13T22:28:49;4.53;;;2.50;;
21339;SDS011;10828;47.064;15.422;2023-07-13T22:31:17;9.70;;;3.93;;
21339;SDS011;10828;47.064;15.422;2023-07-13T22:33:43;5.00;;;2.30;;
21339;SDS011;10828;47.064;15.422;2023-07-13T22:36:15;5.40;;;2.70;;
21339;SDS011;10828;47.064;15.422;2023-07-13T22:38:45;6.00;;;2.50;;
21339;SDS011;10828;47.064;15.422;2023-07-13T22:41:18;5.30;;;2.23;;
21339;SDS011;10828;47.064;15.422;2023-07-13T22:43:46;3.83;;;1.93;;
21339;SDS011;10828;47.064;15.422;2023-07-13T22:46:13;4.00;;;2.20;;
21339;SDS011;10828;47.064;15.422;2023-07-13T22:48:53;8.30;;;3.10;;
21339;SDS011;10828;47.064;15.422;2023-07-13T22:51:24;6.13;;;2.67;;
21339;SDS011;10828;47.064;15.422;2023-07-13T22:53:52;6.10;;;2.77;;
21339;SDS011;10828;47.064;15.422;2023-07-13T22:56:23;6.60;;;2.40;;
21339;SDS011;10828;47.064;15.422;2023-07-13T22:58:50;4.63;;;2.37;;
21339;SDS011;10828;47.064;15.422;2023-07-13T23:01:22;3.83;;;2.20;;
21339;SDS011;10828;47.064;15.422;2023-07-13T23:03:52;4.70;;;2.50;;
21339;SDS011;10828;47.064;15.422;2023-07-13T23:06:33;8.70;;;2.80;;
21339;SDS011;10828;47.064;15.422;2023-07-13T23:09:02;8.10;;;2.40;;
21339;SDS011;10828;47.064;15.422;2023-07-13T23:11:28;4.17;;;2.20;;
21339;SDS011;10828;47.064;15.422;2023-07-13T23:13:56;5.60;;;2.37;;
21339;SDS011;10828;47.064;15.422;2023-07-13T23:16:26;4.93;;;2.20;;
21339;SDS011;10828;47.064;15.422;2023-07-13T23:19:00;3.70;;;2.13;;
21339;SDS011;10828;47.064;15.422;2023-07-13T23:21:27;4.00;;;2.10;;
21339;SDS011;10828;47.064;15.422;2023-07-13T23:24:01;6.90;;;2.67;;
21339;SDS011;10828;47.064;15.422;2023-07-13T23:26:27;5.47;;;2.80;;
21339;SDS011;10828;47.064;15.422;2023-07-13T23:28:54;6.70;;;2.70;;
21339;SDS011;10828;47.064;15.422;2023-07-13T23:31:22;6.73;;;2.63;;
21339;SDS011;10828;47.064;15.422;2023-07-13T23:33:57;4.60;;;2.73;;
21339;SDS011;10828;47.064;15.422;2023-07-13T23:36:39;4.10;;;2.40;;
21339;SDS011;10828;47.064;15.422;2023-07-13T23:39:09;4.53;;;2.20;;
21339;SDS011;10828;47.064;15.422;2023-07-13T23:41:40;5.70;;;2.33;;
21339;SDS011;10828;47.064;15.422;2023-07-13T23:44:14;5.47;;;3.13;;
21339;SDS011;10828;47.064;15.422;2023-07-13T23:46:48;3.80;;;2.40;;
21339;SDS011;10828;47.064;15.422;2023-07-13T23:49:22;5.40;;;2.70;;
21339;SDS011;10828;47.064;15.422;2023-07-13T23:51:55;7.00;;;3.17;;
21339;SDS011;10828;47.064;15.422;2023-07-13T23:54:26;5.13;;;2.80;;
21339;SDS011;10828;47.064;15.422;2023-07-13T23:56:55;5.40;;;2.60;;
21339;SDS011;10828;47.064;15.422;2023-07-13T23:59:21;11.03;;;3.43;;
